createdAt,value
2019-03-17T00:01:08.767Z,2.70
2019-03-17T00:03:38.404Z,3.23
2019-03-17T00:13:36.290Z,2.80
2019-03-17T00:21:45.021Z,2.40
2019-03-17T00:24:15.136Z,1.93
2019-03-17T00:27:05.642Z,2.77
2019-03-17T00:30:13.424Z,2.97
2019-03-17T00:33:02.699Z,3.03
2019-03-17T00:35:51.532Z,2.67
2019-03-17T00:38:40.483Z,2.47
2019-03-17T00:48:18.241Z,2.73
2019-03-17T00:51:48.839Z,2.90
2019-03-17T00:55:30.212Z,2.80
2019-03-17T00:58:11.287Z,3.13
2019-03-17T01:01:00.308Z,2.80
2019-03-17T01:03:49.527Z,2.93
2019-03-17T01:10:00.001Z,2.97
2019-03-17T01:13:26.094Z,2.80
2019-03-17T01:20:09.340Z,2.90
2019-03-17T01:22:57.373Z,3.23
2019-03-17T01:25:45.655Z,3.40
2019-03-17T01:28:33.959Z,3.03
2019-03-17T01:31:22.077Z,2.83
2019-03-17T01:34:10.115Z,3.20
2019-03-17T01:36:58.183Z,3.07
2019-03-17T01:39:46.332Z,3.37
2019-03-17T01:42:34.397Z,2.97
2019-03-17T01:45:22.517Z,2.90
2019-03-17T01:48:10.571Z,3.30
2019-03-17T01:50:58.660Z,3.40
2019-03-17T01:53:46.743Z,2.97
2019-03-17T01:56:34.889Z,3.23
2019-03-17T01:59:15.571Z,3.30
2019-03-17T02:01:56.239Z,3.03
2019-03-17T02:04:36.872Z,3.27
2019-03-17T02:07:17.588Z,2.90
2019-03-17T02:09:58.181Z,3.40
2019-03-17T02:12:38.768Z,2.33
2019-03-17T02:15:19.316Z,2.87
2019-03-17T02:17:59.907Z,3.33
2019-03-17T02:20:40.591Z,3.20
2019-03-17T02:23:20.955Z,2.73
2019-03-17T02:26:02.145Z,2.40
2019-03-17T02:28:42.809Z,3.20
2019-03-17T02:31:23.273Z,2.43
2019-03-17T02:34:03.734Z,3.07
2019-03-17T02:36:42.890Z,3.27
2019-03-17T02:39:31.047Z,2.93
2019-03-17T02:42:19.109Z,2.90
2019-03-17T02:45:07.603Z,2.30
2019-03-17T02:47:55.683Z,2.13
2019-03-17T02:50:43.737Z,1.80
2019-03-17T02:53:32.022Z,2.37
2019-03-17T02:56:20.333Z,2.20
2019-03-17T02:59:08.393Z,1.90
2019-03-17T03:01:56.514Z,2.10
2019-03-17T03:04:44.703Z,1.93
2019-03-17T03:07:32.823Z,1.90
2019-03-17T03:10:20.934Z,1.33
2019-03-17T03:13:01.790Z,1.57
2019-03-17T03:15:42.437Z,2.83
2019-03-17T03:18:23.343Z,1.63
2019-03-17T03:21:04.199Z,1.83
2019-03-17T03:23:44.960Z,1.90
2019-03-17T03:26:25.764Z,2.40
2019-03-17T03:29:06.706Z,1.47
2019-03-17T03:31:47.379Z,1.80
2019-03-17T03:34:28.190Z,1.70
2019-03-17T03:37:08.905Z,2.10
2019-03-17T03:39:49.709Z,1.63
2019-03-17T03:42:30.669Z,2.07
2019-03-17T03:45:11.913Z,1.97
2019-03-17T03:47:52.887Z,1.90
2019-03-17T03:50:33.552Z,1.60
2019-03-17T03:53:14.390Z,1.83
2019-03-17T03:55:55.195Z,1.90
2019-03-17T03:58:36.059Z,1.93
2019-03-17T04:01:16.912Z,2.17
2019-03-17T04:03:57.502Z,1.80
2019-03-17T04:06:37.999Z,1.77
2019-03-17T04:09:18.646Z,1.90
2019-03-17T04:11:59.946Z,2.10
2019-03-17T04:14:41.039Z,2.40
2019-03-17T04:17:21.731Z,2.30
2019-03-17T04:20:02.254Z,2.20
2019-03-17T04:22:43.061Z,2.13
2019-03-17T04:25:22.309Z,2.87
2019-03-17T04:28:10.411Z,2.60
2019-03-17T04:30:58.488Z,2.80
2019-03-17T04:33:46.632Z,2.53
2019-03-17T04:36:40.601Z,2.40
2019-03-17T04:39:26.100Z,2.97
2019-03-17T04:42:14.222Z,2.73
2019-03-17T04:45:02.239Z,2.23
2019-03-17T04:47:50.286Z,2.60
2019-03-17T04:50:38.349Z,2.70
2019-03-17T04:53:26.388Z,2.60
2019-03-17T04:56:14.400Z,2.90
2019-03-17T05:02:02.526Z,2.50
2019-03-17T05:04:50.762Z,2.50
2019-03-17T05:07:38.820Z,2.63
2019-03-17T05:10:26.840Z,2.00
2019-03-17T05:13:14.844Z,1.87
2019-03-17T05:16:02.922Z,2.17
2019-03-17T05:18:31.860Z,2.00
2019-03-17T05:21:19.936Z,2.43
2019-03-17T05:24:08.160Z,1.90
2019-03-17T05:26:56.238Z,2.10
2019-03-17T05:29:44.278Z,2.40
2019-03-17T05:32:32.490Z,1.83
2019-03-17T05:35:22.189Z,1.90
2019-03-17T05:38:10.267Z,2.17
2019-03-17T05:40:58.472Z,2.00
2019-03-17T05:43:46.539Z,2.17
2019-03-17T05:46:34.594Z,1.50
2019-03-17T05:49:22.646Z,2.07
2019-03-17T05:52:10.716Z,1.93
2019-03-17T05:54:58.780Z,1.80
2019-03-17T05:57:46.822Z,1.33
2019-03-17T06:00:27.275Z,1.60
2019-03-17T06:03:08.088Z,1.50
2019-03-17T06:05:48.772Z,1.60
2019-03-17T06:08:29.833Z,1.70
2019-03-17T06:11:10.507Z,1.67
2019-03-17T06:13:51.444Z,1.63
2019-03-17T06:16:32.024Z,1.70
2019-03-17T06:19:12.502Z,1.53
2019-03-17T06:21:53.266Z,1.20
2019-03-17T06:24:34.050Z,1.53
2019-03-17T06:27:14.679Z,1.77
2019-03-17T06:29:55.537Z,1.47
2019-03-17T06:32:36.521Z,1.63
2019-03-17T06:35:17.133Z,1.40
2019-03-17T06:37:57.786Z,1.70
2019-03-17T06:40:39.042Z,1.57
2019-03-17T06:43:19.742Z,1.73
2019-03-17T06:46:00.994Z,1.20
2019-03-17T06:48:42.223Z,1.30
2019-03-17T06:51:21.385Z,1.53
2019-03-17T06:54:09.428Z,1.73
2019-03-17T06:56:50.098Z,1.27
2019-03-17T06:59:30.601Z,1.70
2019-03-17T07:02:11.925Z,1.30
2019-03-17T07:04:53.988Z,1.37
2019-03-17T07:07:43.938Z,1.50
2019-03-17T07:10:17.543Z,1.80
2019-03-17T07:12:58.193Z,2.07
2019-03-17T07:15:38.647Z,1.67
2019-03-17T07:18:19.403Z,1.77
2019-03-17T07:21:00.141Z,1.57
2019-03-17T07:23:40.651Z,1.30
2019-03-17T07:26:21.407Z,1.90
2019-03-17T07:29:02.486Z,1.50
2019-03-17T07:31:43.085Z,1.77
2019-03-17T07:34:23.847Z,1.80
2019-03-17T07:37:04.292Z,1.50
2019-03-17T07:39:44.987Z,1.70
2019-03-17T07:42:26.283Z,1.60
2019-03-17T07:45:06.784Z,1.57
2019-03-17T07:47:47.500Z,1.93
2019-03-17T07:50:28.781Z,1.70
2019-03-17T07:53:09.775Z,1.60
2019-03-17T07:55:50.147Z,1.10
2019-03-17T07:58:30.757Z,1.60
2019-03-17T08:01:12.038Z,1.27
2019-03-17T08:03:52.981Z,1.47
2019-03-17T08:06:33.612Z,1.90
2019-03-17T08:09:14.362Z,1.63
2019-03-17T08:11:55.106Z,1.83
2019-03-17T08:14:36.093Z,1.70
2019-03-17T08:17:16.520Z,1.70
2019-03-17T08:19:57.017Z,1.67
2019-03-17T08:22:37.613Z,1.50
2019-03-17T08:25:18.455Z,1.80
2019-03-17T08:27:59.421Z,1.67
2019-03-17T08:30:52.112Z,2.07
2019-03-17T08:33:22.566Z,1.87
2019-03-17T08:36:03.334Z,1.83
2019-03-17T08:38:44.149Z,1.70
2019-03-17T08:41:25.416Z,1.40
2019-03-17T08:44:06.209Z,1.87
2019-03-17T08:46:47.088Z,1.63
2019-03-17T08:49:27.536Z,1.53
2019-03-17T08:52:08.678Z,1.50
2019-03-17T08:54:49.529Z,1.70
2019-03-17T08:57:30.230Z,1.67
2019-03-17T09:00:10.794Z,1.63
2019-03-17T09:02:51.688Z,1.80
2019-03-17T09:05:32.664Z,1.60
2019-03-17T09:08:13.876Z,1.47
2019-03-17T09:10:55.025Z,1.90
2019-03-17T09:13:36.092Z,1.20
2019-03-17T09:16:16.795Z,1.57
2019-03-17T09:18:57.635Z,1.83
2019-03-17T09:21:38.380Z,1.80
2019-03-17T09:24:19.147Z,1.80
2019-03-17T09:26:59.752Z,1.93
2019-03-17T09:29:40.547Z,2.00
2019-03-17T09:32:21.490Z,1.63
2019-03-17T09:38:01.791Z,1.77
2019-03-17T09:40:42.932Z,1.57
2019-03-17T09:43:23.599Z,1.60
2019-03-17T09:46:04.287Z,2.67
2019-03-17T09:48:44.939Z,1.80
2019-03-17T09:51:25.599Z,2.23
2019-03-17T09:54:06.029Z,1.70
2019-03-17T09:56:46.498Z,2.10
2019-03-17T09:59:26.995Z,1.93
2019-03-17T10:02:08.117Z,1.77
2019-03-17T10:04:49.125Z,1.30
2019-03-17T10:07:30.366Z,1.50
2019-03-17T10:10:10.974Z,2.00
2019-03-17T10:12:51.374Z,1.60
2019-03-17T10:15:32.005Z,1.80
2019-03-17T10:18:12.978Z,1.83
2019-03-17T10:20:53.478Z,1.30
2019-03-17T10:23:34.393Z,1.60
2019-03-17T10:26:15.498Z,1.50
2019-03-17T10:28:56.575Z,1.80
2019-03-17T10:31:37.082Z,1.70
2019-03-17T10:34:17.862Z,1.87
2019-03-17T10:36:58.739Z,2.70
2019-03-17T10:39:39.552Z,1.70
2019-03-17T10:42:20.358Z,1.63
2019-03-17T10:45:01.136Z,1.87
2019-03-17T10:47:41.934Z,1.80
2019-03-17T10:50:22.649Z,2.00
2019-03-17T10:53:03.364Z,1.37
2019-03-17T10:55:44.212Z,2.40
2019-03-17T10:58:25.044Z,2.10
2019-03-17T11:01:05.755Z,2.20
2019-03-17T11:03:46.454Z,1.83
2019-03-17T11:06:27.197Z,2.07
2019-03-17T11:09:08.234Z,1.70
2019-03-17T11:11:49.001Z,2.13
2019-03-17T11:14:30.141Z,1.60
2019-03-17T11:17:11.073Z,2.10
2019-03-17T11:19:52.270Z,2.00
2019-03-17T11:22:31.481Z,1.63
2019-03-17T11:25:19.640Z,2.00
2019-03-17T11:28:07.649Z,1.50
2019-03-17T11:34:10.824Z,1.33
2019-03-17T11:36:58.913Z,1.30
2019-03-17T11:39:46.955Z,1.60
2019-03-17T11:42:34.990Z,1.70
2019-03-17T11:45:23.067Z,2.07
2019-03-17T11:48:11.111Z,2.10
2019-03-17T11:50:59.279Z,1.60
2019-03-17T11:53:47.460Z,1.60
2019-03-17T11:56:35.500Z,1.60
2019-03-17T11:59:16.004Z,1.50
2019-03-17T12:01:56.689Z,1.73
2019-03-17T12:04:37.561Z,2.00
2019-03-17T12:07:18.353Z,2.23
2019-03-17T12:09:59.341Z,1.70
2019-03-17T12:12:40.179Z,1.43
2019-03-17T12:15:21.007Z,1.80
2019-03-17T12:18:01.864Z,1.17
2019-03-17T12:20:42.491Z,1.30
2019-03-17T12:23:23.335Z,1.30
2019-03-17T12:26:04.371Z,1.13
2019-03-17T12:28:44.883Z,1.63
2019-03-17T12:31:25.521Z,1.87
2019-03-17T12:34:06.261Z,1.50
2019-03-17T12:36:46.893Z,1.20
2019-03-17T12:39:26.005Z,1.30
2019-03-17T12:42:14.144Z,1.63
2019-03-17T12:45:02.261Z,1.90
2019-03-17T12:47:50.414Z,1.50
2019-03-17T12:50:38.581Z,1.13
2019-03-17T12:53:26.651Z,1.60
2019-03-17T12:56:14.706Z,1.53
2019-03-17T12:58:55.425Z,1.40
2019-03-17T13:01:38.089Z,1.60
2019-03-17T13:04:18.901Z,0.80
2019-03-17T13:06:59.828Z,0.60
2019-03-17T13:09:40.641Z,0.40
2019-03-17T13:57:00.086Z,0.83
2019-03-17T13:59:40.364Z,0.77
2019-03-17T14:02:20.737Z,1.20
2019-03-17T14:05:00.811Z,1.43
2019-03-17T14:07:41.361Z,0.70
2019-03-17T14:10:19.587Z,0.50
2019-03-17T14:48:40.117Z,0.67
2019-03-17T20:15:45.409Z,0.87
2019-03-17T20:18:14.301Z,0.80
2019-03-17T20:20:49.032Z,1.10
2019-03-17T20:27:11.521Z,0.90
2019-03-17T20:30:10.530Z,0.80
2019-03-17T20:32:58.984Z,0.90
2019-03-17T20:35:47.708Z,0.70
2019-03-17T20:38:37.586Z,1.37
2019-03-17T20:41:41.132Z,0.80
2019-03-17T20:44:15.942Z,1.10
2019-03-17T20:47:04.190Z,0.73
2019-03-17T20:50:12.486Z,0.80
2019-03-17T20:53:01.846Z,0.90
2019-03-17T20:55:50.395Z,0.80
2019-03-17T20:58:38.788Z,0.70
2019-03-17T21:01:12.892Z,0.70
2019-03-17T21:04:01.421Z,0.80
2019-03-17T21:06:49.763Z,1.00
2019-03-17T21:09:38.178Z,0.83
2019-03-17T21:12:26.981Z,1.00
2019-03-17T21:15:15.975Z,1.10
2019-03-17T21:18:04.247Z,1.93
2019-03-17T21:20:55.663Z,0.90
2019-03-17T21:23:46.306Z,0.77
2019-03-17T21:26:34.811Z,1.00
2019-03-17T21:29:24.568Z,1.23
2019-03-17T21:32:25.603Z,0.80
2019-03-17T21:36:21.937Z,0.90
2019-03-17T21:38:17.148Z,0.90
2019-03-17T21:44:04.536Z,0.93
2019-03-17T21:46:52.799Z,1.00
2019-03-17T21:49:43.380Z,1.00
2019-03-17T21:52:34.041Z,1.00
2019-03-17T21:55:22.419Z,0.77
2019-03-17T21:58:29.043Z,0.80
2019-03-17T22:01:01.488Z,0.90
2019-03-17T22:06:38.671Z,0.90
2019-03-17T22:16:05.449Z,0.80
2019-03-17T22:18:59.214Z,0.93
2019-03-17T22:21:52.797Z,0.70
2019-03-17T22:24:56.065Z,1.00
2019-03-17T22:27:36.329Z,0.80
2019-03-17T22:30:27.260Z,0.90
2019-03-17T22:33:16.540Z,0.93
2019-03-17T22:39:25.209Z,0.90
2019-03-17T22:42:13.867Z,0.73
2019-03-17T22:45:08.373Z,1.00
2019-03-17T22:47:56.983Z,1.00
2019-03-17T22:50:45.978Z,1.17
2019-03-17T22:53:34.985Z,0.70
2019-03-17T22:56:23.437Z,0.80
2019-03-17T22:59:12.459Z,0.60
2019-03-17T23:01:53.467Z,1.10
2019-03-17T23:04:22.820Z,1.03
2019-03-17T23:07:32.187Z,1.37
2019-03-17T23:10:20.565Z,0.90
2019-03-17T23:13:09.361Z,0.90
2019-03-17T23:15:57.872Z,1.10
2019-03-17T23:18:43.672Z,0.90
2019-03-17T23:21:27.993Z,1.03
2019-03-17T23:24:09.302Z,0.97
2019-03-17T23:26:50.277Z,1.00
2019-03-17T23:32:41.819Z,1.20
2019-03-17T23:35:23.728Z,0.80
2019-03-17T23:38:05.170Z,1.30
2019-03-17T23:40:46.909Z,1.00
2019-03-17T23:46:16.418Z,1.00
2019-03-17T23:52:01.689Z,1.27
2019-03-17T23:54:43.593Z,1.30
